Time;durP1;ratioP1;P1;durP2;ratioP2;P2;SDS_P1;SDS_P2;PMS_P1;PMS_P2;Temp;Humidity;BMP_temperature;BMP_pressure;BME280_temperature;BME280_humidity;BME280_pressure;Samples;Min_cycle;Max_cycle;Signal;HPM_P1;HPM_P2
2021/05/21 00:00:11;;;;;;;8.53;3.60;;;;;;;12.53;80.68;98480.52;1870670;76;22145;-62
2021/05/21 00:02:46;;;;;;;9.23;3.22;;;;;;;12.49;80.68;98489.14;1870923;76;22109;-63
2021/05/21 00:05:21;;;;;;;9.40;3.75;;;;;;;12.46;80.61;98480.11;1870551;76;22140;-63
2021/05/21 00:07:56;;;;;;;6.12;3.40;;;;;;;12.42;80.40;98490.06;1889920;76;22550;-63
2021/05/21 00:10:30;;;;;;;9.13;3.40;;;;;;;12.37;80.45;98492.23;1870669;76;22121;-62
2021/05/21 00:13:06;;;;;;;8.73;3.65;;;;;;;12.31;80.39;98488.79;1870593;76;22152;-61
2021/05/21 00:16:00;;;;;;;6.78;3.15;;;;;;;12.28;80.54;98497.86;1867487;75;22206;-63
2021/05/21 00:18:34;;;;;;;7.65;3.22;;;;;;;12.24;80.61;98498.76;1870679;76;22148;-62
2021/05/21 00:21:09;;;;;;;6.30;3.17;;;;;;;12.23;80.50;98498.31;1870651;76;22536;-62
2021/05/21 00:23:44;;;;;;;8.40;3.67;;;;;;;12.22;80.51;98511.69;1870627;76;22102;-63
2021/05/21 00:26:19;;;;;;;9.48;3.50;;;;;;;12.21;80.61;98509.95;1889961;76;22535;-61
2021/05/21 00:28:53;;;;;;;7.80;3.47;;;;;;;12.15;80.59;98506.95;1870634;76;22556;-61
2021/05/21 00:31:29;;;;;;;7.37;3.00;;;;;;;12.12;80.76;98515.16;1854603;76;27918;-62
2021/05/21 00:34:23;;;;;;;6.67;3.33;;;;;;;12.12;80.94;98509.98;1850528;77;22207;-62
2021/05/21 00:36:58;;;;;;;12.28;4.08;;;;;;;12.07;81.22;98516.90;1870694;76;22145;-66
2021/05/21 00:39:32;;;;;;;8.80;4.15;;;;;;;12.00;81.47;98522.94;1889949;76;22148;-65
2021/05/21 00:42:08;;;;;;;6.87;4.17;;;;;;;11.92;81.78;98510.88;1870680;76;22117;-63
2021/05/21 00:45:04;;;;;;;5.05;3.25;;;;;;;11.86;82.13;98515.19;1874282;76;22623;-62
2021/05/21 00:47:39;;;;;;;7.37;3.50;;;;;;;11.81;82.56;98524.67;1870683;76;22108;-63
2021/05/21 00:50:25;;;;;;;19.57;4.03;;;;;;;11.70;82.87;98518.20;1827734;78;21123;-63
2021/05/21 00:53:04;;;;;;;9.70;3.98;;;;;;;11.68;83.21;98523.39;1854599;76;28311;-62
2021/05/21 00:55:39;;;;;;;5.65;3.55;;;;;;;11.67;83.36;98522.94;1870648;76;22515;-63
2021/05/21 00:58:19;;;;;;;7.28;3.37;;;;;;;11.63;83.44;98526.41;1869814;76;22137;-63
2021/05/21 01:00:55;;;;;;;5.87;3.52;;;;;;;11.59;83.64;98521.23;1870738;76;22532;-64
2021/05/21 01:03:41;;;;;;;9.20;3.95;;;;;;;11.50;83.80;98538.47;1827813;78;21288;-65
2021/05/21 01:06:16;;;;;;;6.47;3.67;;;;;;;11.51;83.91;98533.72;1870679;76;22112;-67
2021/05/21 01:08:50;;;;;;;10.68;3.47;;;;;;;11.45;84.11;98523.83;1890107;76;22143;-66
2021/05/21 01:11:26;;;;;;;6.67;3.15;;;;;;;11.41;84.26;98521.66;1870609;76;22591;-66
2021/05/21 01:14:01;;;;;;;9.23;3.70;;;;;;;11.38;84.36;98533.29;1889924;76;22558;-64
2021/05/21 01:16:42;;;;;;;10.85;3.77;;;;;;;11.37;84.51;98533.27;1869775;76;22129;-63
2021/05/21 01:19:17;;;;;;;5.78;3.45;;;;;;;11.34;84.45;98523.80;1889946;76;22108;-63
2021/05/21 01:21:52;;;;;;;6.12;2.95;;;;;;;11.33;84.41;98533.72;1870807;76;22117;-65
2021/05/21 01:24:26;;;;;;;5.10;2.75;;;;;;;11.29;84.32;98525.08;1870656;76;22552;-67
2021/05/21 01:27:04;;;;;;;5.55;3.40;;;;;;;11.26;84.16;98524.23;1870655;76;22120;-63
2021/05/21 01:29:40;;;;;;;6.92;3.35;;;;;;;11.28;84.14;98528.97;1889962;76;22217;-63
2021/05/21 01:32:15;;;;;;;8.13;3.40;;;;;;;11.28;84.07;98531.56;1854772;76;27906;-64
2021/05/21 01:34:49;;;;;;;6.83;3.02;;;;;;;11.30;83.91;98533.72;1889949;76;22108;-67
2021/05/21 01:37:47;;;;;;;7.47;2.65;;;;;;;11.23;83.90;98541.88;1791769;80;21130;-63
2021/05/21 01:40:24;;;;;;;6.78;3.80;;;;;;;11.25;83.92;98541.45;1889980;76;22100;-64
2021/05/21 01:43:01;;;;;;;6.83;2.77;;;;;;;11.25;84.14;98541.89;1870657;76;22152;-64
2021/05/21 01:45:39;;;;;;;8.15;3.40;;;;;;;11.22;84.31;98550.50;1870660;76;22180;-62
2021/05/21 01:48:14;;;;;;;5.67;3.22;;;;;;;11.17;84.55;98551.32;1889895;76;22140;-61
2021/05/21 01:50:49;;;;;;;8.50;3.27;;;;;;;11.12;84.69;98545.28;1870658;76;22191;-62
2021/05/21 01:53:23;;;;;;;5.67;2.90;;;;;;;11.06;84.90;98550.88;1870641;76;22575;-65
2021/05/21 01:55:58;;;;;;;5.83;2.80;;;;;;;11.02;84.99;98550.89;1889974;76;22188;-62
2021/05/21 01:58:33;;;;;;;5.65;2.98;;;;;;;10.99;85.12;98547.88;1870636;76;22160;-63
2021/05/21 02:01:08;;;;;;;8.45;3.30;;;;;;;10.98;85.17;98553.87;1870640;76;22532;-64
2021/05/21 02:03:43;;;;;;;6.67;3.17;;;;;;;10.96;85.32;98559.45;1873878;76;28341;-63
2021/05/21 02:06:30;;;;;;;4.72;2.70;;;;;;;10.91;85.46;98567.61;1791476;80;21146;-65
2021/05/21 02:09:08;;;;;;;7.10;3.47;;;;;;;10.92;85.56;98568.06;1889928;76;22115;-63
2021/05/21 02:11:42;;;;;;;7.45;3.25;;;;;;;10.91;85.60;98563.74;1870666;76;22113;-62
2021/05/21 02:14:18;;;;;;;8.05;3.60;;;;;;;10.88;85.64;98554.70;1870661;76;22539;-62
2021/05/21 02:16:52;;;;;;;6.58;3.37;;;;;;;10.85;85.71;98574.06;1870674;76;22609;-62
2021/05/21 02:19:27;;;;;;;8.70;5.17;;;;;;;10.83;85.82;98571.45;1870796;76;22116;-62
2021/05/21 02:22:01;;;;;;;9.70;5.60;;;;;;;10.80;86.06;98575.77;1870689;76;22145;-63
2021/05/21 02:24:37;;;;;;;10.90;5.50;;;;;;;10.78;86.17;98573.59;1870635;76;22121;-62
2021/05/21 02:27:12;;;;;;;8.63;5.45;;;;;;;10.79;86.34;98579.21;1854792;76;27923;-68
2021/05/21 02:29:46;;;;;;;10.38;5.47;;;;;;;10.81;86.40;98578.36;1870669;76;22112;-66
2021/05/21 02:32:21;;;;;;;7.97;4.55;;;;;;;10.80;86.50;98589.52;1870671;76;22113;-62
2021/05/21 02:34:55;;;;;;;7.30;4.25;;;;;;;10.78;86.67;98586.07;1870675;76;22531;-65
2021/05/21 02:37:31;;;;;;;6.78;4.05;;;;;;;10.76;86.84;98576.19;1854658;76;27876;-62
2021/05/21 02:40:08;;;;;;;7.78;4.25;;;;;;;10.80;86.90;98587.38;1870900;76;22139;-62
2021/05/21 02:42:42;;;;;;;8.58;4.08;;;;;;;10.79;86.98;98581.80;1870665;76;22105;-62
2021/05/21 02:45:27;;;;;;;7.85;5.10;;;;;;;10.75;87.07;98587.78;1760557;81;21276;-64
2021/05/21 02:48:02;;;;;;;7.17;4.03;;;;;;;10.79;87.14;98590.83;1870669;76;22133;-64
2021/05/21 02:50:39;;;;;;;9.85;4.30;;;;;;;10.78;87.13;98586.07;1889929;76;22214;-65
2021/05/21 02:53:13;;;;;;;8.70;4.00;;;;;;;10.78;87.13;98578.77;1870639;76;22152;-65
2021/05/21 02:55:48;;;;;;;7.00;3.60;;;;;;;10.82;87.17;98589.55;1870665;76;22109;-62
2021/05/21 02:58:42;;;;;;;7.60;4.17;;;;;;;10.86;87.00;98585.70;1876434;76;22671;-63
2021/05/21 03:01:50;;;;;;;7.22;3.65;;;;;;;10.92;86.89;98591.73;1881967;76;22207;-63
2021/05/21 03:04:25;;;;;;;7.85;4.35;;;;;;;10.94;86.79;98593.47;1870745;76;22149;-63
2021/05/21 03:06:59;;;;;;;7.35;4.28;;;;;;;10.98;86.65;98593.89;1870659;76;22575;-63
2021/05/21 03:09:35;;;;;;;6.47;3.52;;;;;;;11.01;86.50;98595.19;1854631;76;28282;-63
2021/05/21 03:12:11;;;;;;;6.70;3.35;;;;;;;11.11;86.36;98602.97;1870654;76;22137;-64
2021/05/21 03:14:45;;;;;;;7.30;3.67;;;;;;;11.18;86.27;98604.72;1854745;76;27938;-64
2021/05/21 03:17:20;;;;;;;9.55;3.70;;;;;;;11.27;85.90;98609.89;1889949;76;22164;-65
2021/05/21 03:19:54;;;;;;;7.67;3.98;;;;;;;11.31;85.80;98606.47;1889915;76;22570;-63
2021/05/21 03:22:29;;;;;;;7.78;4.50;;;;;;;11.33;85.54;98610.36;1870590;76;22546;-62
2021/05/21 03:25:06;;;;;;;8.15;3.77;;;;;;;11.35;85.49;98606.03;1870675;76;22145;-65
2021/05/21 03:27:41;;;;;;;6.85;3.45;;;;;;;11.40;85.10;98599.19;1889977;76;22607;-65
2021/05/21 03:30:17;;;;;;;6.85;3.30;;;;;;;11.43;85.21;98610.81;1870491;76;22584;-66
2021/05/21 03:32:53;;;;;;;6.87;3.25;;;;;;;11.48;85.15;98615.12;1873950;76;28324;-64
2021/05/21 03:35:28;;;;;;;8.40;4.20;;;;;;;11.61;84.78;98619.02;1870750;76;22164;-64
2021/05/21 03:38:05;;;;;;;6.37;3.75;;;;;;;11.64;84.15;98619.88;1870705;76;22247;-64
2021/05/21 03:40:41;;;;;;;9.68;4.28;;;;;;;11.60;84.01;98617.27;1890008;76;22124;-68
2021/05/21 03:43:16;;;;;;;8.43;3.67;;;;;;;11.56;83.97;98619.44;1859515;76;22203;-63
2021/05/21 03:45:52;;;;;;;6.83;3.50;;;;;;;11.55;84.11;98624.16;1849925;76;27968;-63
2021/05/21 03:48:32;;;;;;;6.33;3.58;;;;;;;11.59;84.00;98629.78;1852161;76;22623;-64
2021/05/21 03:51:09;;;;;;;9.18;4.35;;;;;;;11.56;83.94;98633.66;1854076;76;22236;-64
2021/05/21 03:53:44;;;;;;;5.78;3.27;;;;;;;11.55;84.13;98637.08;1863392;76;22617;-63
2021/05/21 03:56:19;;;;;;;5.33;3.05;;;;;;;11.59;84.19;98639.68;1859673;76;22653;-63
2021/05/21 03:58:56;;;;;;;5.25;3.40;;;;;;;11.67;84.21;98646.16;1856180;76;22199;-63
2021/05/21 04:01:30;;;;;;;6.72;3.12;;;;;;;11.74;84.03;98646.16;1851355;76;22128;-63
2021/05/21 04:04:05;;;;;;;7.97;3.60;;;;;;;11.79;83.70;98646.17;1865204;76;22175;-62
2021/05/21 04:06:41;;;;;;;5.75;3.10;;;;;;;11.83;83.42;98654.38;1870514;76;20148;-63
2021/05/21 04:09:15;;;;;;;10.32;3.50;;;;;;;11.82;83.13;98652.63;1870623;76;22587;-63
2021/05/21 04:11:50;;;;;;;7.00;2.85;;;;;;;11.84;82.98;98652.65;1870616;76;22149;-63
2021/05/21 04:14:25;;;;;;;5.50;2.95;;;;;;;11.88;82.76;98651.40;1855808;76;22152;-63
2021/05/21 04:17:00;;;;;;;8.45;2.98;;;;;;;11.99;82.74;98654.42;1855442;76;22141;-65
2021/05/21 04:19:48;;;;;;;6.55;3.00;;;;;;;12.06;82.52;98656.11;1813031;77;21529;-63
2021/05/21 04:22:23;;;;;;;7.72;3.47;;;;;;;12.25;82.05;98655.70;1836201;76;28000;-64
2021/05/21 04:24:59;;;;;;;6.08;3.08;;;;;;;12.36;81.07;98661.30;1839773;76;27902;-64
2021/05/21 04:27:35;;;;;;;6.37;2.87;;;;;;;12.47;80.65;98663.02;1856686;76;22223;-63
2021/05/21 04:30:23;;;;;;;4.72;2.40;;;;;;;12.43;80.26;98663.88;1827871;77;21268;-63
2021/05/21 04:32:58;;;;;;;4.97;2.47;;;;;;;12.52;80.01;98656.10;1856123;76;20224;-65
2021/05/21 04:35:39;;;;;;;5.70;2.65;;;;;;;12.53;79.91;98661.70;1869761;76;22248;-64
2021/05/21 04:38:20;;;;;;;6.78;2.52;;;;;;;12.61;79.92;98662.53;1889892;76;22163;-64
2021/05/21 04:40:57;;;;;;;7.42;2.55;;;;;;;12.74;79.56;98665.95;1870640;76;22148;-63
2021/05/21 04:43:35;;;;;;;6.28;2.90;;;;;;;12.84;78.86;98669.39;1811725;76;28100;-64
2021/05/21 04:46:10;;;;;;;5.90;2.40;;;;;;;12.96;78.58;98677.13;1870413;76;22250;-66
2021/05/21 04:48:51;;;;;;;8.05;2.90;;;;;;;13.05;78.22;98684.84;1878401;76;22159;-65
2021/05/21 04:51:25;;;;;;;4.92;2.52;;;;;;;13.09;77.95;98685.27;1852694;76;22240;-62
2021/05/21 04:54:01;;;;;;;6.62;2.47;;;;;;;13.17;77.75;98687.39;1870605;76;22145;-65
2021/05/21 04:56:48;;;;;;;5.50;2.35;;;;;;;13.24;77.24;98699.91;1827535;78;21292;-64
2021/05/21 04:59:29;;;;;;;4.95;2.80;;;;;;;13.40;76.54;98705.47;1889847;76;22267;-63
2021/05/21 05:02:04;;;;;;;6.17;2.50;;;;;;;13.48;76.59;98701.55;1870627;76;22120;-63
2021/05/21 05:04:38;;;;;;;4.33;2.60;;;;;;;13.63;75.96;98710.53;1858936;76;22183;-64
2021/05/21 05:07:13;;;;;;;5.35;2.35;;;;;;;13.82;75.77;98708.72;1859689;76;22166;-62
2021/05/21 05:09:47;;;;;;;4.08;2.20;;;;;;;13.96;74.74;98714.25;1856190;76;22195;-61
2021/05/21 05:12:22;;;;;;;5.40;2.65;;;;;;;14.09;74.55;98711.98;1851849;76;22596;-62
2021/05/21 05:14:56;;;;;;;5.58;2.92;;;;;;;14.26;74.42;98711.87;1863728;76;22154;-64
2021/05/21 05:17:42;;;;;;;5.53;2.65;;;;;;;14.37;73.50;98710.03;1827515;77;21086;-65
2021/05/21 05:20:21;;;;;;;9.23;2.15;;;;;;;14.53;72.96;98707.77;1851924;76;22187;-64
2021/05/21 05:22:54;;;;;;;3.75;2.25;;;;;;;14.64;72.14;98716.76;1856015;76;22146;-64
2021/05/21 05:25:44;;;;;;;4.45;2.52;;;;;;;14.65;71.06;98712.41;1827743;78;21169;-64
2021/05/21 05:28:19;;;;;;;5.95;2.40;;;;;;;14.68;70.86;98712.37;1889841;76;22136;-64
2021/05/21 05:30:53;;;;;;;7.37;2.20;;;;;;;14.65;70.89;98718.46;1853338;76;22758;-62
2021/05/21 05:33:29;;;;;;;6.67;2.20;;;;;;;14.75;70.49;98734.83;1881938;76;20108;-61
2021/05/21 05:36:05;;;;;;;4.72;2.60;;;;;;;14.85;70.20;98733.01;1858510;76;22539;-66
2021/05/21 05:38:40;;;;;;;5.70;2.37;;;;;;;15.57;69.73;98739.98;1870436;76;22600;-70
2021/05/21 05:41:15;;;;;;;7.05;2.17;;;;;;;17.39;65.21;98735.33;1870618;76;22176;-63
2021/05/21 05:43:49;;;;;;;3.92;1.95;;;;;;;19.32;60.40;98732.47;1889899;76;22140;-62
2021/05/21 05:46:24;;;;;;;4.80;1.90;;;;;;;21.25;53.73;98744.69;1855488;76;22202;-65
2021/05/21 05:48:59;;;;;;;3.40;1.80;;;;;;;22.35;49.28;98743.61;1870607;76;22599;-70
2021/05/21 05:51:33;;;;;;;3.60;1.80;;;;;;;22.95;46.98;98750.33;1870721;76;22124;-65
2021/05/21 05:54:08;;;;;;;2.83;1.82;;;;;;;23.65;44.28;98753.42;1889891;76;22139;-65
2021/05/21 05:56:55;;;;;;;3.37;1.57;;;;;;;23.76;43.03;98757.75;1861208;77;21291;-66
2021/05/21 05:59:31;;;;;;;4.25;1.90;;;;;;;23.78;42.82;98756.75;1870586;76;22116;-65
2021/05/21 06:02:06;;;;;;;3.47;1.77;;;;;;;23.78;42.29;98758.54;1854730;76;27906;-64
2021/05/21 06:04:41;;;;;;;11.08;1.75;;;;;;;23.81;42.13;98759.70;1870481;76;20101;-65
2021/05/21 06:07:15;;;;;;;3.20;1.65;;;;;;;23.95;42.71;98749.39;1869129;76;22208;-58
2021/05/21 06:09:50;;;;;;;4.95;1.80;;;;;;;24.11;42.31;98748.66;1852889;76;22183;-62
2021/05/21 06:12:25;;;;;;;5.28;1.37;;;;;;;24.11;41.65;98747.34;1821426;77;22156;-64
2021/05/21 06:14:59;;;;;;;4.87;1.60;;;;;;;24.04;42.15;98748.97;1889878;76;22156;-66
2021/05/21 06:17:53;;;;;;;4.50;1.92;;;;;;;24.89;40.50;98755.39;1889815;76;26587;-67
2021/05/21 06:20:31;;;;;;;4.95;1.85;;;;;;;25.47;40.30;98752.87;1868447;76;22241;-66
2021/05/21 06:23:05;;;;;;;3.10;1.23;;;;;;;26.59;38.72;98754.62;1837456;76;27986;-69
2021/05/21 06:25:54;;;;;;;4.25;0.90;;;;;;;27.46;34.83;98763.99;1855195;76;28372;-62
2021/05/21 06:28:21;;;;;;;3.70;1.20;;;;;;;27.16;33.53;98768.48;1852184;76;22167;-61
2021/05/21 06:30:54;;;;;;;2.95;0.80;;;;;;;27.02;33.43;98770.16;1855067;76;22610;-63
2021/05/21 06:33:29;;;;;;;3.08;1.30;;;;;;;26.67;34.27;98760.33;1851831;76;23795;-59
2021/05/21 06:36:05;;;;;;;4.50;1.10;;;;;;;26.28;35.58;98771.35;1854781;76;28005;-60
2021/05/21 06:38:40;;;;;;;4.72;1.40;;;;;;;26.56;35.44;98775.95;1852932;76;22344;-61
2021/05/21 06:41:15;;;;;;;1.85;1.00;;;;;;;26.96;34.93;98777.13;1839637;76;29308;-62
2021/05/21 06:43:49;;;;;;;5.28;1.17;;;;;;;27.35;33.97;98771.77;1856952;76;22165;-60
2021/05/21 06:46:24;;;;;;;3.62;1.40;;;;;;;26.94;33.60;98772.39;1854395;76;22367;-65
2021/05/21 06:49:19;;;;;;;2.33;0.98;;;;;;;25.99;34.46;98777.81;1854372;76;22262;-60
2021/05/21 06:51:53;;;;;;;3.80;1.25;;;;;;;24.95;36.35;98778.83;1851598;76;22222;-61
2021/05/21 06:54:29;;;;;;;3.63;1.07;;;;;;;24.42;37.25;98775.25;1838708;76;28025;-63
2021/05/21 06:57:09;;;;;;;2.83;1.10;;;;;;;23.92;37.75;98774.58;1849632;76;22180;-62
2021/05/21 06:59:57;;;;;;;3.80;1.60;;;;;;;23.91;37.20;98782.08;1799777;78;21401;-64
2021/05/21 07:02:37;;;;;;;3.87;1.30;;;;;;;24.33;36.63;98780.98;1810471;77;22210;-64
2021/05/21 07:05:19;;;;;;;4.60;1.25;;;;;;;24.66;36.11;98778.98;1853685;76;22176;-61
2021/05/21 07:08:05;;;;;;;4.10;1.65;;;;;;;24.94;35.81;98786.38;1795426;78;21568;-58
2021/05/21 07:10:40;;;;;;;3.02;1.17;;;;;;;25.43;35.21;98788.30;1838098;76;28389;-60
2021/05/21 07:13:34;;;;;;;2.02;0.80;;;;;;;26.12;32.95;98788.56;1835315;77;22258;-62
2021/05/21 07:16:16;;;;;;;2.65;1.17;;;;;;;26.86;31.59;98790.53;1865658;76;22236;-59
2021/05/21 07:18:51;;;;;;;4.50;1.00;;;;;;;27.37;31.32;98798.16;1856270;76;22663;-62
2021/05/21 07:21:29;;;;;;;2.35;1.05;;;;;;;28.08;29.52;98792.00;1876608;76;22075;-65
2021/05/21 07:24:02;;;;;;;2.95;1.10;;;;;;;28.25;28.72;98811.68;1821553;76;38449;-63
2021/05/21 07:26:38;;;;;;;3.35;1.10;;;;;;;29.27;28.46;98813.86;1825962;76;28181;-63
2021/05/21 07:29:12;;;;;;;2.80;0.95;;;;;;;30.13;27.07;98819.00;1879849;76;22113;-62
2021/05/21 07:31:46;;;;;;;3.08;1.17;;;;;;;30.37;27.23;98818.56;1852614;76;23296;-61
2021/05/21 07:34:21;;;;;;;3.55;1.15;;;;;;;31.10;27.34;98818.08;1851619;76;22092;-63
2021/05/21 07:36:55;;;;;;;1.60;1.00;;;;;;;31.41;26.95;98825.09;1864916;75;22219;-62
2021/05/21 07:39:36;;;;;;;5.45;0.93;;;;;;;31.49;26.75;98824.85;1889877;76;22084;-61
2021/05/21 07:42:12;;;;;;;2.40;1.00;;;;;;;30.05;27.66;98828.86;1873810;76;27878;-60
2021/05/21 07:44:47;;;;;;;5.40;1.22;;;;;;;28.65;29.06;98833.03;1870575;76;22110;-63
2021/05/21 07:47:22;;;;;;;5.77;1.20;;;;;;;27.85;30.16;98826.61;1853542;76;27856;-65
2021/05/21 07:50:06;;;;;;;2.35;1.10;;;;;;;27.80;30.93;98825.53;1846573;76;22164;-60
2021/05/21 07:52:45;;;;;;;2.67;1.32;;;;;;;27.99;31.31;98827.09;1847227;76;22156;-63
2021/05/21 07:55:39;;;;;;;4.80;1.50;;;;;;;27.89;31.66;98823.67;1870543;75;22149;-62
2021/05/21 07:58:14;;;;;;;6.90;1.80;;;;;;;26.84;33.02;98818.89;1870801;76;22449;-65
2021/05/21 08:00:49;;;;;;;3.15;1.10;;;;;;;25.99;34.02;98818.80;1827075;77;22206;-67
2021/05/21 08:03:24;;;;;;;2.45;0.90;;;;;;;25.83;34.55;98822.72;1852944;76;22112;-70
2021/05/21 08:05:59;;;;;;;3.77;0.90;;;;;;;26.51;33.93;98819.88;1845567;76;22113;-72
2021/05/21 08:08:35;;;;;;;2.87;1.02;;;;;;;27.40;30.92;98821.81;1819384;77;27985;-70
2021/05/21 08:11:13;;;;;;;2.12;0.93;;;;;;;27.50;29.98;98825.61;1870562;76;22058;-61
2021/05/21 08:13:47;;;;;;;3.98;1.07;;;;;;;27.25;31.02;98827.59;1870586;76;22091;-63
2021/05/21 08:16:28;;;;;;;4.10;1.10;;;;;;;27.46;30.77;98822.30;1889842;76;22112;-67
2021/05/21 08:19:05;;;;;;;5.27;1.40;;;;;;;27.89;30.41;98821.50;1841886;76;27850;-57
2021/05/21 08:21:40;;;;;;;5.65;0.90;;;;;;;28.09;30.72;98815.80;1852657;76;22112;-55
2021/05/21 08:24:14;;;;;;;5.30;1.20;;;;;;;27.71;31.00;98812.86;1866285;76;22119;-56
2021/05/21 08:26:49;;;;;;;2.02;0.90;;;;;;;27.43;30.09;98821.17;1857707;76;22181;-58
2021/05/21 08:29:24;;;;;;;2.92;1.00;;;;;;;27.35;31.49;98819.47;1874959;76;22497;-66
2021/05/21 08:32:10;;;;;;;2.95;0.90;;;;;;;27.20;30.42;98820.38;1831978;77;21142;-65
2021/05/21 08:34:51;;;;;;;3.20;0.90;;;;;;;26.90;30.16;98821.20;1856354;76;22313;-66
2021/05/21 08:37:26;;;;;;;3.37;0.53;;;;;;;25.95;31.66;98811.52;1854151;76;22189;-65
2021/05/21 08:40:00;;;;;;;2.95;0.90;;;;;;;24.55;31.38;98808.55;1855464;76;22469;-65
2021/05/21 08:42:39;;;;;;;2.85;0.90;;;;;;;23.62;34.16;98815.86;1856468;76;20119;-67
2021/05/21 08:45:17;;;;;;;3.52;1.17;;;;;;;23.35;35.25;98810.48;1860031;76;22183;-59
2021/05/21 08:47:58;;;;;;;4.62;1.00;;;;;;;23.54;35.29;98811.39;1849215;76;22170;-61
2021/05/21 08:50:39;;;;;;;3.50;1.07;;;;;;;22.79;36.20;98809.77;1850500;76;22669;-60
2021/05/21 08:53:13;;;;;;;4.30;0.95;;;;;;;22.23;37.22;98818.55;1855976;76;22205;-65
2021/05/21 08:55:51;;;;;;;2.63;0.90;;;;;;;22.01;37.98;98808.45;1873930;76;27881;-61
2021/05/21 08:58:26;;;;;;;3.40;0.90;;;;;;;22.18;38.24;98813.89;1890104;76;22139;-65
2021/05/21 09:01:03;;;;;;;1.77;0.85;;;;;;;22.05;38.43;98812.66;1870626;76;22148;-63
2021/05/21 09:03:48;;;;;;;2.05;0.85;;;;;;;21.75;38.61;98808.09;1869798;76;22150;-64
2021/05/21 09:06:23;;;;;;;2.83;1.20;;;;;;;21.42;39.14;98810.60;1870650;76;22547;-64
2021/05/21 09:09:00;;;;;;;4.03;1.05;;;;;;;21.41;39.47;98817.20;1873817;76;27898;-67
2021/05/21 09:11:46;;;;;;;3.47;1.00;;;;;;;21.78;38.91;98811.91;1869879;76;22203;-67
2021/05/21 09:14:21;;;;;;;3.50;0.80;;;;;;;21.82;38.36;98817.01;1852122;76;22199;-67
2021/05/21 09:16:58;;;;;;;3.60;0.80;;;;;;;21.33;38.30;98816.13;1870593;76;22182;-66
2021/05/21 09:19:33;;;;;;;3.27;0.85;;;;;;;21.00;39.19;98819.00;1889865;76;22167;-68
2021/05/21 09:22:18;;;;;;;1.85;0.90;;;;;;;20.71;39.69;98821.72;1861120;77;21134;-68
2021/05/21 09:24:54;;;;;;;6.87;1.20;;;;;;;20.53;39.33;98818.78;1889986;76;22203;-65
2021/05/21 09:27:36;;;;;;;3.17;1.00;;;;;;;20.14;39.90;98825.64;1869954;76;22135;-66
2021/05/21 09:30:13;;;;;;;2.80;1.05;;;;;;;19.68;40.19;98824.37;1889995;76;22145;-65
2021/05/21 09:32:54;;;;;;;2.58;1.00;;;;;;;19.45;41.30;98830.21;1878786;76;22205;-64
2021/05/21 09:35:29;;;;;;;4.60;1.22;;;;;;;19.28;42.12;98831.11;1846014;76;22180;-66
2021/05/21 09:38:08;;;;;;;2.00;0.90;;;;;;;19.40;41.86;98820.77;1844372;76;22124;-65
2021/05/21 09:40:44;;;;;;;2.67;0.90;;;;;;;19.44;38.84;98823.73;1889898;76;22595;-63
2021/05/21 09:43:23;;;;;;;3.20;1.00;;;;;;;19.28;37.51;98820.64;1819562;77;28383;-65
2021/05/21 09:46:12;;;;;;;1.37;0.72;;;;;;;19.03;36.57;98829.15;1704555;83;21142;-63
2021/05/21 09:48:48;;;;;;;4.97;0.80;;;;;;;19.07;36.17;98824.69;1870595;76;22184;-70
2021/05/21 09:51:23;;;;;;;4.03;1.10;;;;;;;19.30;36.69;98819.70;1870663;76;20097;-64
2021/05/21 09:54:09;;;;;;;2.15;1.00;;;;;;;19.54;38.54;98808.17;1760504;81;21555;-67
2021/05/21 09:57:09;;;;;;;3.02;1.05;;;;;;;19.62;38.46;98814.05;1874315;75;22625;-68
2021/05/21 09:59:47;;;;;;;2.95;1.05;;;;;;;19.69;38.23;98814.75;1870468;76;22575;-65
2021/05/21 10:02:37;;;;;;;4.72;1.45;;;;;;;19.64;38.18;98821.41;1827841;78;21589;-61
2021/05/21 10:05:13;;;;;;;3.55;1.00;;;;;;;19.64;38.40;98820.11;1870406;76;22583;-68
2021/05/21 10:07:52;;;;;;;3.80;0.98;;;;;;;19.85;38.46;98817.81;1890003;76;22331;-64
2021/05/21 10:10:25;;;;;;;5.17;1.22;;;;;;;20.03;37.83;98812.02;1870494;76;22157;-67
2021/05/21 10:13:01;;;;;;;2.65;0.90;;;;;;;19.87;37.60;98806.38;1854638;76;27856;-66
2021/05/21 10:15:36;;;;;;;2.50;1.07;;;;;;;19.86;37.67;98815.12;1828041;76;27887;-64
2021/05/21 10:18:13;;;;;;;1.70;0.90;;;;;;;19.91;37.23;98810.61;1870609;76;22543;-62
2021/05/21 10:20:47;;;;;;;3.27;1.00;;;;;;;19.64;36.82;98812.67;1873786;76;28269;-61
2021/05/21 10:23:29;;;;;;;3.15;0.70;;;;;;;19.47;35.11;98818.41;1889978;76;22120;-63
2021/05/21 10:26:12;;;;;;;4.60;1.40;;;;;;;19.47;34.37;98816.64;1870650;76;22151;-61
2021/05/21 10:28:51;;;;;;;2.20;0.80;;;;;;;19.19;35.98;98816.52;1870498;76;22136;-64
2021/05/21 10:31:28;;;;;;;1.47;0.80;;;;;;;19.11;36.76;98808.45;1870732;76;22156;-60
2021/05/21 10:34:21;;;;;;;3.08;1.00;;;;;;;19.25;36.68;98813.73;1870676;76;22124;-63
2021/05/21 10:36:59;;;;;;;2.90;1.37;;;;;;;19.32;36.19;98808.36;1870664;76;22133;-62
2021/05/21 10:40:13;;;;;;;1.72;0.70;;;;;;;19.38;36.72;98818.64;1740645;81;21145;-64
2021/05/21 10:42:51;;;;;;;2.70;0.90;;;;;;;19.58;37.30;98811.09;1812605;77;28494;-60
2021/05/21 10:45:26;;;;;;;2.22;0.90;;;;;;;19.79;39.36;98799.18;1870645;76;22168;-53
2021/05/21 10:48:09;;;;;;;2.80;1.10;;;;;;;19.99;38.44;98802.52;1853438;76;27891;-66
2021/05/21 10:50:45;;;;;;;2.33;1.00;;;;;;;20.05;39.25;98801.47;1862316;76;22159;-55
2021/05/21 10:53:31;;;;;;;4.25;1.30;;;;;;;19.91;37.26;98800.59;1836880;77;21260;-58
2021/05/21 10:56:07;;;;;;;4.45;1.30;;;;;;;19.95;38.11;98805.70;1861121;76;22573;-54
2021/05/21 10:58:44;;;;;;;2.00;0.95;;;;;;;20.02;38.24;98803.73;1843817;76;28300;-52
2021/05/21 11:01:25;;;;;;;1.52;0.82;;;;;;;20.31;37.51;98804.17;1872860;76;22155;-53
2021/05/21 11:04:27;;;;;;;2.65;1.00;;;;;;;20.47;36.68;98804.54;1872949;75;22202;-62
2021/05/21 11:07:04;;;;;;;2.85;0.95;;;;;;;20.48;36.16;98804.97;1847327;76;22223;-65
2021/05/21 11:10:00;;;;;;;3.70;0.95;;;;;;;20.43;35.12;98798.13;1828266;75;28359;-67
2021/05/21 11:12:55;;;;;;;5.15;1.00;;;;;;;20.40;35.32;98797.77;1872279;75;22202;-68
2021/05/21 11:15:44;;;;;;;2.10;0.90;;;;;;;20.30;35.04;98797.23;1870659;76;22148;-64
2021/05/21 11:18:24;;;;;;;3.30;1.17;;;;;;;20.33;34.41;98796.28;1889886;76;22132;-63
2021/05/21 11:21:14;;;;;;;3.47;1.07;;;;;;;20.72;34.19;98790.22;1861013;77;21122;-66
2021/05/21 11:23:54;;;;;;;3.95;1.10;;;;;;;20.79;33.83;98791.73;1887851;76;22211;-65
2021/05/21 11:26:29;;;;;;;3.98;1.20;;;;;;;20.89;33.59;98793.59;1889748;76;22144;-63
2021/05/21 11:29:07;;;;;;;4.35;1.70;;;;;;;20.91;32.39;98797.47;1854786;76;27890;-68
2021/05/21 11:31:49;;;;;;;4.78;1.62;;;;;;;20.88;28.92;98795.80;1869701;76;22186;-65
2021/05/21 11:34:22;;;;;;;5.83;2.33;;;;;;;20.63;28.59;98795.75;1854768;76;27889;-67
2021/05/21 11:36:58;;;;;;;3.98;1.52;;;;;;;20.43;29.04;98814.73;1870564;76;22199;-71
2021/05/21 11:39:39;;;;;;;3.00;0.90;;;;;;;20.37;29.11;98809.67;1889922;76;22163;-66
2021/05/21 11:42:14;;;;;;;3.65;0.82;;;;;;;20.22;29.29;98803.59;1854763;76;27913;-64
2021/05/21 11:44:53;;;;;;;2.27;0.85;;;;;;;20.16;29.79;98817.29;1854745;76;27889;-68
2021/05/21 11:47:35;;;;;;;1.57;0.57;;;;;;;20.41;29.59;98803.44;1870679;76;23057;-66
2021/05/21 11:50:10;;;;;;;1.57;0.70;;;;;;;20.60;29.42;98800.64;1870693;76;22583;-65
2021/05/21 11:52:46;;;;;;;3.17;1.00;;;;;;;20.68;28.24;98799.55;1870487;76;22600;-71
2021/05/21 11:55:27;;;;;;;4.45;1.10;;;;;;;20.59;28.66;98799.41;1889844;76;22171;-69
2021/05/21 11:58:03;;;;;;;2.72;1.02;;;;;;;20.23;29.46;98808.80;1889852;76;22148;-65
2021/05/21 12:00:39;;;;;;;8.53;0.95;;;;;;;20.26;29.02;98807.84;1858236;76;22168;-69
2021/05/21 12:03:15;;;;;;;2.60;1.00;;;;;;;20.13;28.97;98812.61;1870570;76;22171;-69
2021/05/21 12:05:50;;;;;;;3.50;1.20;;;;;;;20.07;29.06;98812.77;1836145;76;28012;-67
2021/05/21 12:08:27;;;;;;;1.50;0.70;;;;;;;20.01;29.04;98809.04;1870491;76;22157;-69
2021/05/21 12:11:21;;;;;;;4.55;1.02;;;;;;;19.75;28.59;98822.91;1873712;75;20247;-62
2021/05/21 12:14:16;;;;;;;1.98;0.85;;;;;;;19.80;28.75;98814.01;1855313;76;22563;-65
2021/05/21 12:16:57;;;;;;;3.02;0.85;;;;;;;19.85;28.93;98821.73;1855961;76;22186;-69
2021/05/21 12:19:32;;;;;;;1.82;0.98;;;;;;;19.96;29.27;98818.34;1887886;76;22194;-70
2021/05/21 12:22:08;;;;;;;2.67;0.70;;;;;;;19.88;29.13;98812.47;1836274;76;27967;-69
2021/05/21 12:24:43;;;;;;;3.08;0.90;;;;;;;19.80;29.83;98813.16;1848671;76;22217;-69